Time;durP1;ratioP1;P1;durP2;ratioP2;P2;SDS_P1;SDS_P2;PMS_P1;PMS_P2;Temp;Humidity;BMP_temperature;BMP_pressure;BME280_temperature;BME280_humidity;BME280_pressure;Samples;Min_cycle;Max_cycle;Signal;HPM_P1;HPM_P2
2023/04/02 00:01:35;;;;;;;2.42;0.63;;;8.10;99.90;;;;;;7569703;19;20022;-78
2023/04/02 00:04:21;;;;;;;2.75;0.88;;;8.00;99.90;;;;;;7567534;19;20985;-78
2023/04/02 00:07:29;;;;;;;0.65;0.50;;;8.00;99.90;;;;;;7569364;19;20018;-78
2023/04/02 00:10:01;;;;;;;1.10;0.93;;;8.10;99.90;;;;;;7573667;19;20061;-77
2023/04/02 00:12:33;;;;;;;1.00;0.47;;;8.00;99.90;;;;;;7581501;19;20093;-79
2023/04/02 00:15:11;;;;;;;1.42;1.08;;;8.00;99.90;;;;;;7589881;19;20523;-77
2023/04/02 00:17:44;;;;;;;0.82;0.60;;;8.00;99.90;;;;;;7599410;19;21204;-77
2023/04/02 00:20:18;;;;;;;2.30;0.57;;;7.90;99.90;;;;;;7598770;19;20026;-78
2023/04/02 00:22:51;;;;;;;0.60;0.60;;;7.90;99.90;;;;;;7606092;19;20010;-76
2023/04/02 00:25:27;;;;;;;2.05;0.70;;;7.90;99.90;;;;;;7588763;19;20029;-75
2023/04/02 00:27:59;;;;;;;1.48;0.70;;;8.00;99.90;;;;;;7610269;19;20022;-77
2023/04/02 00:30:31;;;;;;;1.08;0.70;;;7.90;99.90;;;;;;7606195;19;20642;-75
2023/04/02 00:33:03;;;;;;;1.25;0.80;;;7.90;99.90;;;;;;7582838;19;20720;-77
2023/04/02 00:35:37;;;;;;;1.35;0.60;;;7.90;99.90;;;;;;7602499;19;20014;-77
2023/04/02 00:38:24;;;;;;;1.08;0.70;;;8.00;99.90;;;;;;7581786;19;20053;-78
2023/04/02 00:41:00;;;;;;;1.40;0.75;;;8.10;99.90;;;;;;7608285;19;20022;-78
2023/04/02 00:43:38;;;;;;;0.73;0.73;;;8.10;99.90;;;;;;7607535;19;20014;-78
2023/04/02 00:46:15;;;;;;;2.30;0.70;;;8.10;99.90;;;;;;7587101;19;20014;-77
2023/04/02 00:49:13;;;;;;;3.25;0.80;;;8.00;99.90;;;;;;7599501;19;20022;-77
2023/04/02 00:51:56;;;;;;;1.42;0.68;;;7.90;99.90;;;;;;7581059;19;20014;-79
2023/04/02 00:54:33;;;;;;;3.30;1.02;;;7.90;99.90;;;;;;7587618;19;20022;-78
2023/04/02 00:57:16;;;;;;;1.80;0.73;;;7.90;99.90;;;;;;7568540;19;20497;-78
2023/04/02 01:00:12;;;;;;;1.17;0.60;;;7.90;99.90;;;;;;7602590;19;20018;-78
2023/04/02 01:03:15;;;;;;;4.80;0.80;;;8.00;99.90;;;;;;7582344;19;20021;-76
2023/04/02 01:05:50;;;;;;;1.20;0.98;;;7.90;99.90;;;;;;7606554;19;20034;-76
2023/04/02 01:08:57;;;;;;;3.50;1.08;;;7.80;99.90;;;;;;7592851;19;20021;-76
2023/04/02 01:11:53;;;;;;;1.50;0.68;;;7.80;99.90;;;;;;7593915;19;20085;-75
2023/04/02 01:14:36;;;;;;;4.32;0.88;;;7.70;99.90;;;;;;7581878;19;20819;-76
2023/04/02 01:17:42;;;;;;;1.67;0.70;;;7.80;99.90;;;;;;7576396;19;20010;-76
2023/04/02 01:20:36;;;;;;;2.65;1.00;;;7.80;99.90;;;;;;7600866;19;20117;-75
2023/04/02 01:23:08;;;;;;;1.25;0.70;;;7.80;99.90;;;;;;7598414;19;20014;-79
2023/04/02 01:25:49;;;;;;;0.73;0.52;;;7.80;99.90;;;;;;7590258;19;20023;-76
2023/04/02 01:28:45;;;;;;;5.05;0.90;;;7.80;99.90;;;;;;7572939;19;20520;-77
2023/04/02 01:31:18;;;;;;;0.90;0.70;;;7.80;99.90;;;;;;7591313;19;20044;-77
2023/04/02 01:33:50;;;;;;;1.13;1.03;;;7.90;99.90;;;;;;7604166;19;20129;-77
2023/04/02 01:36:47;;;;;;;2.75;1.15;;;7.90;99.90;;;;;;7596558;19;20448;-78
2023/04/02 01:39:45;;;;;;;1.15;0.90;;;7.80;99.90;;;;;;7581895;19;20127;-78
2023/04/02 01:42:25;;;;;;;0.82;0.60;;;7.80;99.90;;;;;;7573559;19;20015;-77
2023/04/02 01:45:12;;;;;;;1.75;0.70;;;7.80;99.90;;;;;;7596115;19;20488;-78
2023/04/02 01:47:45;;;;;;;4.93;0.95;;;7.80;99.90;;;;;;7569131;19;20488;-78
2023/04/02 01:50:35;;;;;;;2.58;0.70;;;7.80;99.90;;;;;;7562297;19;20979;-77
2023/04/02 01:53:12;;;;;;;3.15;0.82;;;7.80;99.90;;;;;;7581801;19;20022;-76
2023/04/02 01:55:47;;;;;;;2.63;0.55;;;7.90;99.90;;;;;;7570489;19;20014;-77
2023/04/02 01:58:26;;;;;;;7.60;3.78;;;7.90;99.90;;;;;;7577610;19;20022;-77
2023/04/02 02:01:13;;;;;;;1.90;0.80;;;7.80;99.90;;;;;;7596480;19;20014;-76
2023/04/02 02:03:48;;;;;;;1.80;0.85;;;7.80;99.90;;;;;;7580171;19;20063;-76
2023/04/02 02:06:22;;;;;;;2.40;0.75;;;7.90;99.90;;;;;;7580823;19;20014;-77
2023/04/02 02:09:00;;;;;;;3.22;0.80;;;7.90;99.90;;;;;;7592413;19;20018;-77
2023/04/02 02:11:35;;;;;;;1.75;0.68;;;7.90;99.90;;;;;;7588490;19;20021;-79
2023/04/02 02:14:14;;;;;;;2.65;0.60;;;7.90;99.90;;;;;;7585403;19;20026;-76
2023/04/02 02:16:47;;;;;;;2.90;0.85;;;7.90;99.90;;;;;;7571291;19;20514;-75
2023/04/02 02:19:27;;;;;;;1.13;0.80;;;7.90;99.90;;;;;;7571949;19;20029;-76
2023/04/02 02:22:26;;;;;;;1.23;0.70;;;7.90;99.90;;;;;;7574896;19;20010;-76
2023/04/02 02:25:04;;;;;;;1.02;0.70;;;7.80;99.90;;;;;;7591259;19;20019;-78
2023/04/02 02:27:51;;;;;;;1.55;0.70;;;7.90;99.90;;;;;;7571096;19;21905;-77
2023/04/02 02:30:49;;;;;;;1.38;0.70;;;7.90;99.90;;;;;;7586837;19;20539;-76
2023/04/02 02:33:30;;;;;;;2.67;0.70;;;7.80;99.90;;;;;;7567970;19;20018;-76
2023/04/02 02:36:14;;;;;;;1.20;0.68;;;7.80;99.90;;;;;;7581561;19;20033;-75
2023/04/02 02:38:53;;;;;;;0.80;0.50;;;7.80;99.90;;;;;;7578030;19;21007;-77
2023/04/02 02:41:49;;;;;;;2.35;0.70;;;7.80;99.90;;;;;;7580890;19;20022;-75
2023/04/02 02:44:25;;;;;;;1.77;0.60;;;7.70;99.90;;;;;;7564138;19;20017;-77
2023/04/02 02:47:03;;;;;;;0.90;0.50;;;7.80;99.90;;;;;;7563196;19;20424;-78
2023/04/02 02:50:04;;;;;;;0.90;0.60;;;7.80;99.90;;;;;;7565660;19;20018;-75
2023/04/02 02:52:38;;;;;;;2.28;0.80;;;7.80;99.90;;;;;;7566218;19;20011;-77
2023/04/02 02:55:18;;;;;;;5.72;0.73;;;7.80;99.90;;;;;;7570482;19;20375;-75
2023/04/02 02:58:10;;;;;;;1.42;0.80;;;7.80;99.90;;;;;;7574299;19;20782;-76
2023/04/02 03:00:50;;;;;;;0.90;0.70;;;7.70;99.90;;;;;;7581557;19;20718;-76
2023/04/02 03:03:27;;;;;;;2.35;0.90;;;7.80;99.90;;;;;;7580445;19;20022;-77
2023/04/02 03:06:09;;;;;;;1.20;0.73;;;7.70;99.90;;;;;;7574190;19;20018;-79
2023/04/02 03:09:11;;;;;;;2.47;1.05;;;7.60;99.90;;;;;;7594801;19;20023;-77
2023/04/02 03:11:56;;;;;;;2.65;1.08;;;7.60;99.90;;;;;;7597760;19;20921;-77
2023/04/02 03:14:45;;;;;;;1.35;0.90;;;7.70;99.90;;;;;;7566034;19;20117;-78
2023/04/02 03:17:40;;;;;;;2.83;0.57;;;7.70;99.90;;;;;;7561741;19;20535;-77
2023/04/02 03:20:22;;;;;;;4.22;0.90;;;7.70;99.90;;;;;;7558892;19;20498;-76
2023/04/02 03:23:23;;;;;;;3.30;0.65;;;7.60;99.90;;;;;;7574349;19;20014;-79
2023/04/02 03:26:07;;;;;;;0.63;0.60;;;7.60;99.90;;;;;;7553748;19;20018;-78
2023/04/02 03:28:46;;;;;;;3.10;0.97;;;7.60;99.90;;;;;;7582666;19;20022;-78
2023/04/02 03:31:35;;;;;;;0.77;0.60;;;7.60;99.90;;;;;;7568215;19;20030;-76
2023/04/02 03:34:17;;;;;;;4.00;1.08;;;7.60;99.90;;;;;;7548110;19;20018;-76
2023/04/02 03:37:06;;;;;;;2.90;0.70;;;7.70;99.90;;;;;;7556157;19;20736;-77
2023/04/02 03:39:46;;;;;;;1.58;0.73;;;7.70;99.90;;;;;;7570986;19;20019;-76
2023/04/02 03:42:24;;;;;;;1.10;0.80;;;7.70;99.90;;;;;;7564082;19;20030;-76
2023/04/02 03:45:04;;;;;;;3.13;1.05;;;7.70;99.90;;;;;;7579421;19;20026;-76
2023/04/02 03:47:58;;;;;;;1.23;0.60;;;7.70;99.90;;;;;;7535904;19;21077;-76
2023/04/02 03:50:39;;;;;;;0.70;0.70;;;7.60;99.90;;;;;;7574858;19;20053;-75
2023/04/02 03:53:12;;;;;;;2.20;0.68;;;7.60;99.90;;;;;;7578429;19;20022;-75
2023/04/02 03:55:45;;;;;;;1.87;0.80;;;7.60;99.90;;;;;;7574782;19;20049;-77
2023/04/02 03:58:39;;;;;;;1.33;0.70;;;7.60;99.90;;;;;;7567372;19;20805;-76
2023/04/02 04:01:34;;;;;;;2.75;0.80;;;7.60;99.90;;;;;;7558625;19;20014;-76
2023/04/02 04:04:15;;;;;;;5.10;0.80;;;7.50;99.90;;;;;;7585777;19;20002;-76
2023/04/02 04:06:51;;;;;;;3.63;0.68;;;7.50;99.90;;;;;;7578598;19;20016;-76
2023/04/02 04:09:29;;;;;;;1.38;0.70;;;7.50;99.90;;;;;;7569739;19;20869;-78
2023/04/02 04:12:18;;;;;;;0.80;0.70;;;7.60;99.90;;;;;;7569498;19;20019;-78
2023/04/02 04:15:05;;;;;;;0.82;0.68;;;7.60;99.90;;;;;;7572581;19;20031;-79
2023/04/02 04:18:00;;;;;;;1.77;0.90;;;7.60;99.90;;;;;;7560091;19;20102;-77
2023/04/02 04:20:48;;;;;;;1.05;0.70;;;7.50;99.90;;;;;;7557242;19;20014;-78
2023/04/02 04:23:30;;;;;;;3.60;0.65;;;7.50;99.90;;;;;;7528738;19;20058;-78
2023/04/02 04:26:18;;;;;;;2.78;0.68;;;7.60;99.90;;;;;;7567884;19;20138;-79
2023/04/02 04:29:11;;;;;;;1.77;0.65;;;7.60;99.90;;;;;;7546792;19;20015;-78
2023/04/02 04:31:48;;;;;;;1.73;0.80;;;7.60;99.90;;;;;;7554612;19;20061;-76
2023/04/02 04:34:31;;;;;;;1.35;0.70;;;7.50;99.90;;;;;;7577019;19;20015;-77
2023/04/02 04:37:06;;;;;;;2.08;0.88;;;7.60;99.90;;;;;;7580021;19;20018;-77
2023/04/02 04:39:48;;;;;;;1.58;0.93;;;7.60;99.90;;;;;;7577098;19;20010;-78
2023/04/02 04:42:30;;;;;;;1.17;0.77;;;7.60;99.90;;;;;;7570013;19;20007;-78
2023/04/02 04:45:05;;;;;;;4.97;0.60;;;7.50;99.90;;;;;;7582013;19;20060;-77
2023/04/02 04:47:42;;;;;;;4.40;1.00;;;7.60;99.90;;;;;;7568480;19;20025;-78
2023/04/02 04:50:33;;;;;;;1.23;0.70;;;7.50;99.90;;;;;;7572700;19;20021;-78
2023/04/02 04:53:12;;;;;;;2.17;0.88;;;7.50;99.90;;;;;;7562739;19;20022;-77
2023/04/02 04:55:47;;;;;;;1.95;0.70;;;7.50;99.90;;;;;;7574248;19;20028;-79
2023/04/02 04:58:22;;;;;;;3.38;0.82;;;7.50;99.90;;;;;;7576060;19;20030;-78
2023/04/02 05:01:02;;;;;;;2.33;0.63;;;7.40;99.90;;;;;;7550160;19;21215;-77
2023/04/02 05:03:49;;;;;;;1.30;0.50;;;7.40;99.90;;;;;;7577963;19;20015;-77
2023/04/02 05:06:48;;;;;;;1.27;0.90;;;7.50;99.90;;;;;;7576082;19;20023;-78
2023/04/02 05:09:41;;;;;;;5.10;0.65;;;7.40;99.90;;;;;;7575574;19;20611;-78
2023/04/02 05:12:39;;;;;;;1.63;0.50;;;7.50;99.90;;;;;;7583305;19;20022;-76
2023/04/02 05:15:47;;;;;;;2.35;0.60;;;7.40;99.90;;;;;;7577810;19;20057;-77
2023/04/02 05:18:29;;;;;;;1.15;0.90;;;7.40;99.90;;;;;;7573576;19;21297;-78
2023/04/02 05:21:26;;;;;;;0.93;0.65;;;7.40;99.90;;;;;;7567311;19;20015;-77
2023/04/02 05:24:27;;;;;;;1.50;0.70;;;7.50;99.90;;;;;;7592704;19;20015;-76
2023/04/02 05:27:22;;;;;;;1.60;0.57;;;7.40;99.90;;;;;;7602556;19;20025;-77
2023/04/02 05:30:08;;;;;;;0.93;0.75;;;7.40;99.90;;;;;;7607963;19;20086;-75
2023/04/02 05:32:48;;;;;;;1.73;0.80;;;7.40;99.90;;;;;;7610962;19;20605;-75
2023/04/02 05:35:35;;;;;;;1.52;0.80;;;7.40;99.90;;;;;;7597923;19;20050;-75
2023/04/02 05:38:21;;;;;;;2.65;0.60;;;7.40;99.90;;;;;;7607977;19;20022;-77
2023/04/02 05:41:03;;;;;;;2.10;0.68;;;7.40;99.90;;;;;;7605873;19;20015;-76
2023/04/02 05:43:38;;;;;;;0.65;0.50;;;7.40;99.90;;;;;;7604075;19;20409;-77
2023/04/02 05:46:26;;;;;;;1.85;0.57;;;7.50;99.90;;;;;;7583756;19;20015;-76
2023/04/02 05:49:02;;;;;;;4.13;0.60;;;7.50;99.90;;;;;;7605349;19;20021;-77
2023/04/02 05:51:42;;;;;;;1.02;0.70;;;7.50;99.90;;;;;;7597079;19;21057;-77
2023/04/02 05:54:23;;;;;;;2.65;0.98;;;7.50;99.90;;;;;;7584896;19;20016;-76
2023/04/02 05:57:06;;;;;;;3.13;0.70;;;7.60;99.90;;;;;;7583004;19;20562;-76
2023/04/02 05:59:47;;;;;;;2.35;1.00;;;7.50;99.90;;;;;;7598840;19;21157;-76
2023/04/02 06:02:40;;;;;;;3.45;0.85;;;7.50;99.90;;;;;;7588726;19;20010;-77
2023/04/02 06:05:32;;;;;;;1.83;0.80;;;7.50;99.90;;;;;;7579319;19;20021;-76
2023/04/02 06:08:13;;;;;;;2.63;0.65;;;7.50;99.90;;;;;;7585834;19;20021;-74
2023/04/02 06:11:00;;;;;;;3.58;1.20;;;7.60;99.90;;;;;;7589451;19;20021;-76
2023/04/02 06:13:33;;;;;;;4.35;1.25;;;7.60;99.90;;;;;;7596003;19;21272;-75
2023/04/02 06:16:08;;;;;;;;;;;7.50;99.90;;;;;;7590430;19;20199;-76
2023/04/02 06:18:42;;;;;;;;;;;7.50;99.90;;;;;;7599635;19;19919;-74
2023/04/02 06:21:22;;;;;;;10.68;1.20;;;7.60;99.90;;;;;;7595229;19;21019;-79
2023/04/02 06:24:04;;;;;;;1.55;0.93;;;7.60;99.90;;;;;;7584591;19;21556;-80
2023/04/02 06:27:04;;;;;;;3.10;1.20;;;7.60;99.90;;;;;;7603539;19;20389;-79
2023/04/02 06:29:43;;;;;;;2.72;0.90;;;7.60;99.90;;;;;;7581956;19;20127;-79
2023/04/02 06:32:35;;;;;;;1.98;1.08;;;7.70;99.90;;;;;;7599914;19;20024;-78
2023/04/02 06:35:34;;;;;;;1.45;0.73;;;7.70;99.90;;;;;;7602421;19;20015;-78
2023/04/02 06:38:35;;;;;;;3.67;1.23;;;7.70;99.90;;;;;;7579290;19;20018;-81
2023/04/02 06:41:31;;;;;;;2.15;1.13;;;7.70;99.90;;;;;;7603205;19;20028;-79
2023/04/02 06:44:32;;;;;;;5.32;0.82;;;7.70;99.90;;;;;;7599961;19;20018;-76
2023/04/02 06:47:29;;;;;;;0.85;0.80;;;7.70;99.90;;;;;;7571053;19;20006;-80
2023/04/02 06:50:41;;;;;;;1.45;0.60;;;7.70;99.90;;;;;;7579250;19;20018;-77
2023/04/02 06:56:28;;;;;;;2.83;1.08;;;7.80;99.90;;;;;;7578808;19;20353;-78
2023/04/02 06:59:06;;;;;;;1.88;0.95;;;7.90;99.90;;;;;;7612937;19;20026;-78
2023/04/02 07:06:20;;;;;;;8.95;2.83;;;8.00;99.90;;;;;;7600502;19;20128;-78
2023/04/02 07:10:08;;;;;;;7.13;4.38;;;8.10;99.90;;;;;;7606331;19;20354;-79
2023/04/02 07:12:47;;;;;;;14.43;7.88;;;8.20;99.90;;;;;;7599255;19;20042;-80
2023/04/02 07:15:20;;;;;;;11.23;6.30;;;8.30;99.90;;;;;;7606503;19;20035;-79
2023/04/02 07:17:57;;;;;;;9.68;4.30;;;8.30;99.90;;;;;;7617162;19;20014;-79
2023/04/02 07:20:36;;;;;;;14.93;7.72;;;8.30;99.90;;;;;;7607669;19;20023;-79
2023/04/02 07:23:13;;;;;;;8.88;3.67;;;8.30;99.90;;;;;;7606239;19;20026;-78
2023/04/02 07:25:49;;;;;;;6.18;2.42;;;8.40;99.90;;;;;;7594062;19;20570;-80
2023/04/02 07:28:21;;;;;;;;;;;8.50;99.90;;;;;;7588663;19;20018;-79
2023/04/02 07:30:55;;;;;;;4.40;2.03;;;8.50;99.90;;;;;;7598964;19;20446;-80
2023/04/02 07:33:31;;;;;;;9.88;4.63;;;8.60;99.90;;;;;;7599055;19;20510;-79
2023/04/02 07:36:05;;;;;;;4.43;1.70;;;8.50;99.90;;;;;;7592861;19;20683;-78
2023/04/02 07:38:37;;;;;;;4.78;1.55;;;8.60;99.90;;;;;;7595839;19;20010;-80
2023/04/02 07:41:12;;;;;;;11.05;4.72;;;8.70;99.90;;;;;;7621452;19;20019;-78
2023/04/02 07:47:33;;;;;;;3.17;0.95;;;8.80;99.90;;;;;;7609410;19;20017;-81
2023/04/02 07:50:14;;;;;;;2.65;1.25;;;8.70;99.90;;;;;;7598312;19;20420;-78
2023/04/02 07:52:47;;;;;;;2.60;1.50;;;8.90;99.90;;;;;;7617603;19;20360;-78
2023/04/02 07:55:20;;;;;;;4.13;2.10;;;8.90;99.90;;;;;;7607990;19;20031;-79
2023/04/02 07:57:59;;;;;;;;;;;9.00;99.90;;;;;;7596736;19;21159;-79
2023/04/02 08:00:37;;;;;;;4.53;1.75;;;9.10;99.90;;;;;;7583368;19;19944;-79
2023/04/02 08:03:17;;;;;;;4.13;1.95;;;9.10;99.90;;;;;;7579369;19;20023;-79
2023/04/02 08:05:55;;;;;;;6.35;2.75;;;9.20;99.90;;;;;;7589042;19;20041;-79
2023/04/02 08:08:30;;;;;;;4.55;2.65;;;9.30;99.90;;;;;;7586274;19;21180;-82
2023/04/02 08:11:08;;;;;;;3.60;1.95;;;9.40;99.90;;;;;;7607798;19;20007;-79
2023/04/02 08:14:05;;;;;;;4.47;1.88;;;9.50;99.90;;;;;;7604337;19;20014;-80
2023/04/02 08:16:52;;;;;;;4.38;1.70;;;9.40;99.90;;;;;;7602071;19;20221;-79
2023/04/02 08:19:25;;;;;;;2.58;1.60;;;9.40;99.90;;;;;;7615074;19;20395;-81
2023/04/02 08:21:58;;;;;;;3.10;1.50;;;9.40;99.90;;;;;;7605377;19;20031;-79
2023/04/02 08:24:36;;;;;;;2.63;1.30;;;9.40;99.90;;;;;;7607013;19;20611;-79
2023/04/02 08:27:16;;;;;;;6.72;2.88;;;9.50;99.90;;;;;;7614478;19;20022;-78
2023/04/02 08:29:57;;;;;;;2.15;1.30;;;9.60;99.90;;;;;;7625396;19;20011;-79
2023/04/02 08:32:30;;;;;;;2.23;1.40;;;9.60;99.90;;;;;;7634623;19;20029;-81
2023/04/02 08:35:07;;;;;;;2.53;1.00;;;9.60;99.90;;;;;;7628233;19;20278;-79
2023/04/02 08:37:41;;;;;;;2.97;1.55;;;9.70;99.90;;;;;;7613483;19;20006;-79
2023/04/02 08:40:23;;;;;;;;;;;9.80;99.90;;;;;;7606493;19;20427;-79
2023/04/02 08:43:36;;;;;;;1.10;1.00;;;9.90;99.90;;;;;;7607192;19;19940;-80
2023/04/02 08:46:25;;;;;;;4.63;1.48;;;10.00;99.90;;;;;;7615274;19;20021;-78
2023/04/02 08:49:02;;;;;;;1.77;1.13;;;10.00;99.90;;;;;;7611297;19;20014;-79
2023/04/02 08:51:56;;;;;;;3.58;1.00;;;10.10;99.90;;;;;;7581585;19;20058;-79
2023/04/02 08:54:31;;;;;;;1.27;0.77;;;10.20;99.90;;;;;;7557392;19;20010;-79
2023/04/02 08:57:36;;;;;;;3.88;1.30;;;10.40;99.90;;;;;;7574759;19;21345;-79
2023/04/02 09:00:31;;;;;;;3.15;0.98;;;10.40;99.60;;;;;;7539454;19;20464;-78
2023/04/02 09:03:09;;;;;;;4.38;1.40;;;10.50;99.70;;;;;;7567869;19;20091;-78
2023/04/02 09:05:51;;;;;;;1.23;0.98;;;10.30;98.20;;;;;;7587198;19;20022;-77
2023/04/02 09:08:26;;;;;;;2.13;1.10;;;10.30;99.20;;;;;;7596223;19;20251;-79
2023/04/02 09:11:22;;;;;;;5.88;1.42;;;10.20;98.30;;;;;;7597940;19;20048;-81
2023/04/02 09:13:57;;;;;;;3.35;1.48;;;10.20;99.10;;;;;;7592071;19;20098;-80
2023/04/02 09:16:53;;;;;;;2.50;1.00;;;10.30;99.60;;;;;;7595082;19;20584;-80
2023/04/02 09:19:35;;;;;;;2.80;1.20;;;10.30;98.10;;;;;;7586629;19;20946;-79
2023/04/02 09:22:22;;;;;;;3.42;0.90;;;10.50;98.70;;;;;;7600741;19;20031;-79
2023/04/02 09:24:58;;;;;;;4.07;1.13;;;10.40;97.30;;;;;;7592521;19;20065;-80
2023/04/02 09:27:35;;;;;;;2.65;0.98;;;10.60;98.20;;;;;;7593089;19;20026;-79
2023/04/02 09:30:14;;;;;;;2.15;0.77;;;10.70;97.10;;;;;;7613258;19;20048;-80
2023/04/02 09:32:50;;;;;;;1.83;0.77;;;10.60;95.70;;;;;;7618118;19;20027;-80
2023/04/02 09:35:28;;;;;;;2.58;1.00;;;10.90;96.60;;;;;;7620062;19;20372;-79
2023/04/02 09:38:34;;;;;;;1.98;0.90;;;11.00;96.80;;;;;;7597935;19;20022;-79
2023/04/02 09:41:18;;;;;;;1.55;0.98;;;11.00;94.90;;;;;;7596135;19;20589;-79
2023/04/02 09:44:12;;;;;;;2.10;0.85;;;11.00;94.30;;;;;;7584279;19;20082;-79
2023/04/02 09:47:09;;;;;;;2.67;1.50;;;11.10;95.00;;;;;;7573075;19;20019;-79
2023/04/02 09:50:23;;;;;;;2.83;1.48;;;11.20;94.20;;;;;;7565238;19;20018;-77
2023/04/02 09:52:56;;;;;;;4.47;1.88;;;11.30;92.50;;;;;;7574832;19;20043;-78
2023/04/02 09:55:29;;;;;;;4.10;1.63;;;11.20;92.40;;;;;;7576933;19;20027;-77
2023/04/02 09:58:21;;;;;;;2.33;1.00;;;11.20;93.20;;;;;;7550328;19;20131;-78
2023/04/02 10:00:54;;;;;;;2.10;1.00;;;11.30;93.00;;;;;;7598555;19;20018;-77
2023/04/02 10:03:35;;;;;;;3.65;1.05;;;11.20;92.90;;;;;;7592325;19;20003;-77
2023/04/02 10:06:13;;;;;;;3.88;1.17;;;11.20;93.10;;;;;;7583482;19;20043;-77
2023/04/02 10:08:46;;;;;;;4.95;1.40;;;11.10;92.90;;;;;;7586303;19;20369;-80
2023/04/02 10:11:26;;;;;;;3.30;1.00;;;11.10;92.70;;;;;;7604450;19;20021;-79
2023/04/02 10:14:28;;;;;;;2.15;1.20;;;11.10;92.80;;;;;;7606241;19;20094;-79
2023/04/02 10:17:25;;;;;;;2.20;1.20;;;11.20;93.70;;;;;;7607680;19;20023;-79
2023/04/02 10:20:36;;;;;;;2.65;1.10;;;11.20;92.20;;;;;;7616677;19;20069;-77
2023/04/02 10:23:44;;;;;;;3.55;1.02;;;11.40;92.80;;;;;;7616051;19;20038;-78
2023/04/02 10:26:43;;;;;;;4.18;0.80;;;11.40;91.90;;;;;;7595480;19;20042;-80
2023/04/02 10:29:52;;;;;;;1.90;0.60;;;11.20;92.50;;;;;;7621113;19;20090;-80
2023/04/02 10:32:56;;;;;;;3.00;0.93;;;11.30;92.00;;;;;;7617521;19;20010;-78
2023/04/02 10:35:46;;;;;;;4.03;0.82;;;11.30;91.50;;;;;;7631488;19;20054;-79
2023/04/02 10:38:41;;;;;;;2.67;0.77;;;11.30;91.60;;;;;;7602613;19;20048;-78
2023/04/02 10:41:32;;;;;;;1.83;0.85;;;11.40;92.40;;;;;;7615610;19;20098;-78
2023/04/02 10:44:17;;;;;;;2.05;0.80;;;11.50;91.70;;;;;;7610181;19;20011;-79
2023/04/02 10:47:36;;;;;;;1.67;0.98;;;11.60;91.40;;;;;;7606158;19;20014;-79
2023/04/02 10:50:31;;;;;;;1.60;0.90;;;11.60;91.20;;;;;;7602693;19;20025;-78
2023/04/02 10:53:21;;;;;;;1.00;0.80;;;11.80;91.30;;;;;;7595439;19;20451;-81
2023/04/02 10:56:07;;;;;;;4.78;1.20;;;11.90;90.90;;;;;;7563279;19;20051;-79
2023/04/02 10:59:02;;;;;;;2.25;1.40;;;11.90;90.70;;;;;;7569799;19;21310;-80
2023/04/02 11:01:39;;;;;;;3.42;1.13;;;11.80;90.70;;;;;;7531262;19;20604;-79
2023/04/02 11:04:23;;;;;;;3.20;1.10;;;11.90;90.70;;;;;;7558015;19;20951;-79
2023/04/02 11:07:01;;;;;;;;;;;12.00;90.30;;;;;;7554032;19;20010;-79
2023/04/02 11:09:53;;;;;;;3.00;1.17;;;12.00;90.50;;;;;;7566166;19;21033;-77
2023/04/02 11:12:50;;;;;;;2.15;0.93;;;12.30;90.60;;;;;;7591106;19;20015;-78
2023/04/02 11:15:23;;;;;;;1.92;0.90;;;12.90;88.20;;;;;;7634344;19;20014;-78
2023/04/02 11:17:56;;;;;;;1.90;0.80;;;13.20;85.00;;;;;;7638671;19;20078;-77
2023/04/02 11:21:03;;;;;;;2.13;0.68;;;13.20;83.20;;;;;;7620831;19;20283;-78
2023/04/02 11:23:52;;;;;;;1.33;0.68;;;13.60;83.60;;;;;;7608937;19;20011;-80
2023/04/02 11:26:30;;;;;;;0.82;0.65;;;13.60;80.90;;;;;;7566599;19;20014;-78
2023/04/02 11:29:28;;;;;;;2.33;0.60;;;13.60;79.20;;;;;;7574585;19;20516;-78
2023/04/02 11:32:19;;;;;;;2.30;0.80;;;13.80;80.40;;;;;;7552986;19;20018;-78
2023/04/02 11:34:54;;;;;;;1.33;0.55;;;13.70;77.30;;;;;;7566289;19;21211;-79
2023/04/02 11:37:43;;;;;;;1.70;0.90;;;13.60;77.90;;;;;;7571455;19;20014;-80
2023/04/02 11:40:15;;;;;;;2.33;0.90;;;13.40;78.00;;;;;;7531240;19;20906;-80
2023/04/02 11:42:50;;;;;;;2.20;0.77;;;13.30;79.60;;;;;;7549128;19;20018;-79
2023/04/02 11:45:25;;;;;;;1.15;0.70;;;13.20;79.90;;;;;;7570068;19;20081;-79
2023/04/02 11:48:00;;;;;;;1.35;0.77;;;13.00;80.50;;;;;;7570550;19;20595;-77
2023/04/02 11:50:44;;;;;;;1.50;0.60;;;13.00;81.50;;;;;;7549583;19;20574;-77
2023/04/02 11:53:34;;;;;;;1.42;1.00;;;12.90;82.20;;;;;;7553876;19;20014;-78
2023/04/02 11:56:20;;;;;;;1.38;0.50;;;12.70;82.20;;;;;;7518187;19;20595;-80
2023/04/02 11:59:20;;;;;;;2.50;0.90;;;12.60;83.20;;;;;;7535412;19;20788;-78
2023/04/02 12:02:22;;;;;;;11.25;7.97;;;12.60;84.10;;;;;;7548081;19;20025;-78
2023/04/02 12:05:06;;;;;;;2.15;1.20;;;12.50;85.30;;;;;;7524609;19;20022;-80
2023/04/02 12:07:52;;;;;;;2.47;1.15;;;12.60;85.40;;;;;;7537755;19;20898;-79
2023/04/02 12:10:49;;;;;;;1.13;0.70;;;12.60;84.90;;;;;;7541583;19;20011;-79
2023/04/02 12:13:40;;;;;;;2.90;1.23;;;12.80;84.80;;;;;;7514526;19;20390;-80
2023/04/02 12:16:13;;;;;;;3.90;1.60;;;12.70;83.30;;;;;;7454305;19;20022;-78
2023/04/02 12:18:52;;;;;;;1.10;0.90;;;12.80;86.20;;;;;;7535672;19;21364;-78
2023/04/02 12:21:28;;;;;;;1.77;1.13;;;12.70;87.60;;;;;;7527613;19;20039;-79
2023/04/02 12:24:02;;;;;;;2.17;1.20;;;12.60;88.60;;;;;;7527129;19;20034;-78
2023/04/02 12:26:36;;;;;;;1.90;1.58;;;12.60;88.80;;;;;;7557227;19;20021;-77
2023/04/02 12:29:27;;;;;;;1.92;1.30;;;12.80;89.10;;;;;;7573494;19;20010;-77
2023/04/02 12:32:02;;;;;;;1.88;1.27;;;12.90;86.20;;;;;;7551583;19;20017;-77
2023/04/02 12:34:35;;;;;;;2.88;1.08;;;13.30;86.80;;;;;;7533873;19;20052;-76
2023/04/02 12:37:22;;;;;;;4.20;0.80;;;13.70;84.40;;;;;;7504905;19;20069;-80
2023/04/02 12:39:58;;;;;;;2.45;0.90;;;14.10;79.20;;;;;;7540189;19;20007;-80
2023/04/02 12:42:36;;;;;;;2.92;0.85;;;13.60;79.80;;;;;;7521397;19;20029;-78
2023/04/02 12:45:32;;;;;;;2.92;0.82;;;13.50;81.60;;;;;;7537855;19;21523;-78
2023/04/02 12:48:05;;;;;;;5.63;2.67;;;13.10;91.70;;;;;;7543494;19;21289;-76
2023/04/02 12:50:40;;;;;;;;;;;12.60;95.20;;;;;;7566681;19;20018;-78
2023/04/02 12:53:30;;;;;;;3.13;1.80;;;12.20;99.90;;;;;;7556374;19;20329;-78
2023/04/02 12:56:04;;;;;;;5.03;2.47;;;11.90;99.90;;;;;;7530122;19;20018;-79
2023/04/02 12:58:38;;;;;;;;;;;11.60;99.90;;;;;;7513165;19;21976;-77
2023/04/02 13:01:26;;;;;;;2.38;1.60;;;11.50;99.90;;;;;;7527307;19;22653;-77
2023/04/02 13:04:05;;;;;;;3.10;2.10;;;11.40;99.90;;;;;;7532031;19;20505;-78
2023/04/02 13:06:41;;;;;;;4.05;3.25;;;11.20;99.90;;;;;;7550103;19;20025;-80
2023/04/02 13:09:40;;;;;;;2.97;2.20;;;11.20;99.90;;;;;;7563068;19;20025;-79
2023/04/02 13:12:26;;;;;;;2.00;1.42;;;11.10;99.90;;;;;;7532263;19;20020;-77
2023/04/02 13:15:02;;;;;;;2.00;1.63;;;10.90;99.90;;;;;;7543214;19;20017;-81
2023/04/02 13:17:42;;;;;;;3.63;1.90;;;10.80;99.90;;;;;;7538379;19;25866;-81
2023/04/02 13:20:35;;;;;;;2.65;1.65;;;10.80;99.90;;;;;;7521854;19;20018;-78
2023/04/02 13:23:29;;;;;;;2.08;1.70;;;10.70;99.90;;;;;;7557684;19;20014;-78
2023/04/02 13:26:28;;;;;;;3.55;1.80;;;10.60;99.90;;;;;;7548987;19;20006;-78
2023/04/02 13:29:09;;;;;;;3.10;1.80;;;10.50;99.90;;;;;;7574611;19;20638;-76
2023/04/02 13:31:42;;;;;;;2.05;1.40;;;10.30;99.90;;;;;;7583526;19;20796;-79
2023/04/02 13:34:14;;;;;;;1.92;1.48;;;10.20;99.90;;;;;;7574048;19;20523;-78
2023/04/02 13:36:47;;;;;;;1.92;1.50;;;10.10;99.90;;;;;;7551405;19;20017;-77
2023/04/02 13:39:20;;;;;;;3.33;1.65;;;10.10;99.90;;;;;;7552264;19;20053;-77
2023/04/02 13:41:58;;;;;;;2.53;1.73;;;10.00;99.90;;;;;;7545242;19;20066;-78
2023/04/02 13:44:32;;;;;;;6.85;3.08;;;9.90;99.90;;;;;;7553723;19;25589;-77
2023/04/02 13:47:05;;;;;;;6.28;2.58;;;9.90;99.90;;;;;;7558451;19;20049;-77
2023/04/02 13:49:37;;;;;;;4.28;1.73;;;9.80;99.90;;;;;;7528348;19;24297;-78
2023/04/02 13:52:13;;;;;;;5.68;2.30;;;9.80;99.90;;;;;;7545665;19;20019;-79
2023/04/02 13:54:53;;;;;;;3.10;2.65;;;9.80;99.90;;;;;;7532232;19;20006;-76
2023/04/02 13:57:25;;;;;;;2.45;1.98;;;9.80;99.90;;;;;;7511823;19;20517;-78
2023/04/02 13:59:58;;;;;;;3.90;1.65;;;9.70;99.90;;;;;;7537607;19;24965;-78
2023/04/02 14:02:30;;;;;;;3.33;2.38;;;9.80;99.90;;;;;;7552960;19;20025;-79
2023/04/02 14:05:19;;;;;;;4.10;1.60;;;9.80;99.90;;;;;;7624998;19;20027;-81
2023/04/02 14:08:19;;;;;;;4.03;1.80;;;9.80;99.90;;;;;;7609432;19;26181;-78
2023/04/02 14:11:20;;;;;;;3.20;2.17;;;9.90;99.90;;;;;;7501675;19;20097;-78
2023/04/02 14:14:11;;;;;;;4.00;2.10;;;9.90;99.90;;;;;;7547049;19;21098;-78
2023/04/02 14:16:56;;;;;;;2.85;2.03;;;9.90;99.90;;;;;;7551290;19;20025;-78
2023/04/02 14:19:52;;;;;;;2.55;1.40;;;10.00;99.90;;;;;;7501569;19;20014;-79
2023/04/02 14:23:08;;;;;;;1.92;1.70;;;10.00;99.90;;;;;;7515696;19;25804;-79
2023/04/02 14:25:43;;;;;;;2.03;1.63;;;10.00;99.90;;;;;;7515536;19;20015;-80
2023/04/02 14:28:41;;;;;;;2.78;1.60;;;10.00;99.90;;;;;;7522930;19;20030;-79
2023/04/02 14:31:22;;;;;;;5.32;2.38;;;10.10;99.90;;;;;;7551644;19;20960;-78
2023/04/02 14:34:18;;;;;;;3.10;2.45;;;10.10;99.90;;;;;;7546702;19;20050;-77
2023/04/02 14:37:11;;;;;;;4.88;3.00;;;10.00;99.90;;;;;;7525798;19;20022;-79